sensor_id;sensor_type;location;lat;lon;timestamp;temperature;humidity
53454;DHT22;49404;50.472;6.954;2022-08-21T00:00:30;21.10;60.50
53454;DHT22;49404;50.472;6.954;2022-08-21T00:03:08;21.10;60.30
53454;DHT22;49404;50.472;6.954;2022-08-21T00:05:43;21.10;60.40
53454;DHT22;49404;50.472;6.954;2022-08-21T00:08:14;21.10;60.60
53454;DHT22;49404;50.472;6.954;2022-08-21T00:10:43;21.10;60.70
53454;DHT22;49404;50.472;6.954;2022-08-21T00:13:17;21.00;60.70
53454;DHT22;49404;50.472;6.954;2022-08-21T00:15:43;21.00;60.90
53454;DHT22;49404;50.472;6.954;2022-08-21T00:18:16;21.00;61.00
53454;DHT22;49404;50.472;6.954;2022-08-21T00:20:49;21.00;61.60
53454;DHT22;49404;50.472;6.954;2022-08-21T00:23:17;20.90;61.50
53454;DHT22;49404;50.472;6.954;2022-08-21T00:25:47;20.80;61.90
53454;DHT22;49404;50.472;6.954;2022-08-21T00:28:14;20.80;62.30
53454;DHT22;49404;50.472;6.954;2022-08-21T00:30:40;20.70;62.50
53454;DHT22;49404;50.472;6.954;2022-08-21T00:33:07;20.60;62.70
53454;DHT22;49404;50.472;6.954;2022-08-21T00:35:38;20.50;62.90
53454;DHT22;49404;50.472;6.954;2022-08-21T00:38:05;20.40;63.40
53454;DHT22;49404;50.472;6.954;2022-08-21T00:41:24;20.40;63.50
53454;DHT22;49404;50.472;6.954;2022-08-21T00:43:31;20.30;63.70
53454;DHT22;49404;50.472;6.954;2022-08-21T00:46:04;20.20;63.90
53454;DHT22;49404;50.472;6.954;2022-08-21T00:48:31;20.20;64.50
53454;DHT22;49404;50.472;6.954;2022-08-21T00:51:15;20.10;64.50
53454;DHT22;49404;50.472;6.954;2022-08-21T00:53:47;20.00;64.70
53454;DHT22;49404;50.472;6.954;2022-08-21T00:56:14;20.00;64.70
53454;DHT22;49404;50.472;6.954;2022-08-21T00:58:41;20.00;64.70
53454;DHT22;49404;50.472;6.954;2022-08-21T01:01:14;20.00;64.50
53454;DHT22;49404;50.472;6.954;2022-08-21T01:03:40;20.00;64.70
53454;DHT22;49404;50.472;6.954;2022-08-21T01:06:14;20.00;64.50
53454;DHT22;49404;50.472;6.954;2022-08-21T01:08:42;19.90;64.20
53454;DHT22;49404;50.472;6.954;2022-08-21T01:11:17;19.90;64.30
53454;DHT22;49404;50.472;6.954;2022-08-21T01:13:47;19.90;64.40
53454;DHT22;49404;50.472;6.954;2022-08-21T01:16:15;19.90;64.50
53454;DHT22;49404;50.472;6.954;2022-08-21T01:18:41;19.90;64.40
53454;DHT22;49404;50.472;6.954;2022-08-21T01:21:12;19.90;64.80
53454;DHT22;49404;50.472;6.954;2022-08-21T01:23:44;19.90;64.40
53454;DHT22;49404;50.472;6.954;2022-08-21T01:26:29;19.90;64.50
53454;DHT22;49404;50.472;6.954;2022-08-21T01:29:16;19.80;64.70
53454;DHT22;49404;50.472;6.954;2022-08-21T01:31:48;19.80;64.90
53454;DHT22;49404;50.472;6.954;2022-08-21T01:34:14;19.80;65.00
53454;DHT22;49404;50.472;6.954;2022-08-21T01:36:43;19.80;65.10
53454;DHT22;49404;50.472;6.954;2022-08-21T01:39:17;19.70;65.60
53454;DHT22;49404;50.472;6.954;2022-08-21T01:41:43;19.80;65.80
53454;DHT22;49404;50.472;6.954;2022-08-21T01:44:13;19.70;65.80
53454;DHT22;49404;50.472;6.954;2022-08-21T01:46:41;19.70;65.90
53454;DHT22;49404;50.472;6.954;2022-08-21T01:49:07;19.70;66.30
53454;DHT22;49404;50.472;6.954;2022-08-21T01:51:36;19.70;66.40
53454;DHT22;49404;50.472;6.954;2022-08-21T01:54:04;19.70;67.10
53454;DHT22;49404;50.472;6.954;2022-08-21T01:56:37;19.60;66.80
53454;DHT22;49404;50.472;6.954;2022-08-21T01:59:03;19.60;67.20
53454;DHT22;49404;50.472;6.954;2022-08-21T02:01:31;19.50;67.40
53454;DHT22;49404;50.472;6.954;2022-08-21T02:04:03;19.50;67.70
53454;DHT22;49404;50.472;6.954;2022-08-21T02:06:29;19.40;67.80
53454;DHT22;49404;50.472;6.954;2022-08-21T02:09:02;19.30;68.40
53454;DHT22;49404;50.472;6.954;2022-08-21T02:11:27;19.20;68.50
53454;DHT22;49404;50.472;6.954;2022-08-21T02:13:53;19.20;68.20
53454;DHT22;49404;50.472;6.954;2022-08-21T02:16:18;19.10;68.50
53454;DHT22;49404;50.472;6.954;2022-08-21T02:18:44;19.10;68.90
53454;DHT22;49404;50.472;6.954;2022-08-21T02:21:13;19.10;68.50
53454;DHT22;49404;50.472;6.954;2022-08-21T02:23:43;19.10;68.80
53454;DHT22;49404;50.472;6.954;2022-08-21T02:26:13;19.00;68.80
53454;DHT22;49404;50.472;6.954;2022-08-21T02:28:38;19.00;69.10
53454;DHT22;49404;50.472;6.954;2022-08-21T02:31:05;18.90;68.80
53454;DHT22;49404;50.472;6.954;2022-08-21T02:33:31;18.90;69.40
53454;DHT22;49404;50.472;6.954;2022-08-21T02:36:07;18.80;69.40
53454;DHT22;49404;50.472;6.954;2022-08-21T02:38:38;18.80;69.10
53454;DHT22;49404;50.472;6.954;2022-08-21T02:41:07;18.90;69.40
53454;DHT22;49404;50.472;6.954;2022-08-21T02:43:42;18.90;69.50
53454;DHT22;49404;50.472;6.954;2022-08-21T02:46:09;18.90;69.40
53454;DHT22;49404;50.472;6.954;2022-08-21T02:48:35;18.80;69.40
53454;DHT22;49404;50.472;6.954;2022-08-21T02:51:08;18.80;69.40
53454;DHT22;49404;50.472;6.954;2022-08-21T02:53:35;18.90;69.60
53454;DHT22;49404;50.472;6.954;2022-08-21T02:56:07;18.80;69.30
53454;DHT22;49404;50.472;6.954;2022-08-21T02:58:35;18.80;69.30
53454;DHT22;49404;50.472;6.954;2022-08-21T03:01:02;18.80;68.90
53454;DHT22;49404;50.472;6.954;2022-08-21T03:03:30;18.80;68.90
53454;DHT22;49404;50.472;6.954;2022-08-21T03:05:56;18.80;69.40
53454;DHT22;49404;50.472;6.954;2022-08-21T03:08:22;18.80;69.00
53454;DHT22;49404;50.472;6.954;2022-08-21T03:10:54;18.80;69.10
53454;DHT22;49404;50.472;6.954;2022-08-21T03:13:22;18.70;69.40
53454;DHT22;49404;50.472;6.954;2022-08-21T03:15:54;18.70;69.60
53454;DHT22;49404;50.472;6.954;2022-08-21T03:18:20;18.60;69.50
53454;DHT22;49404;50.472;6.954;2022-08-21T03:20:46;18.60;69.70
53454;DHT22;49404;50.472;6.954;2022-08-21T03:23:13;18.50;69.90
53454;DHT22;49404;50.472;6.954;2022-08-21T03:25:49;18.50;69.80
53454;DHT22;49404;50.472;6.954;2022-08-21T03:28:20;18.50;70.20
53454;DHT22;49404;50.472;6.954;2022-08-21T03:30:48;18.60;69.60
53454;DHT22;49404;50.472;6.954;2022-08-21T03:33:14;18.50;69.60
53454;DHT22;49404;50.472;6.954;2022-08-21T03:35:48;18.50;69.60
53454;DHT22;49404;50.472;6.954;2022-08-21T03:38:14;18.50;69.60
53454;DHT22;49404;50.472;6.954;2022-08-21T03:40:43;18.50;69.70
53454;DHT22;49404;50.472;6.954;2022-08-21T03:43:09;18.50;70.20
53454;DHT22;49404;50.472;6.954;2022-08-21T03:45:35;18.40;70.10
53454;DHT22;49404;50.472;6.954;2022-08-21T03:48:02;18.40;70.20
53454;DHT22;49404;50.472;6.954;2022-08-21T03:50:43;18.40;70.30
53454;DHT22;49404;50.472;6.954;2022-08-21T03:53:14;18.40;70.70
53454;DHT22;49404;50.472;6.954;2022-08-21T03:55:42;18.40;70.90
53454;DHT22;49404;50.472;6.954;2022-08-21T03:58:08;18.30;70.80
53454;DHT22;49404;50.472;6.954;2022-08-21T04:00:34;18.30;70.80
53454;DHT22;49404;50.472;6.954;2022-08-21T04:03:00;18.30;70.90
53454;DHT22;49404;50.472;6.954;2022-08-21T04:05:30;18.30;70.70
53454;DHT22;49404;50.472;6.954;2022-08-21T04:08:07;18.30;70.60
53454;DHT22;49404;50.472;6.954;2022-08-21T04:10:35;18.30;71.00
53454;DHT22;49404;50.472;6.954;2022-08-21T04:13:08;18.30;70.80
53454;DHT22;49404;50.472;6.954;2022-08-21T04:15:36;18.30;71.10
53454;DHT22;49404;50.472;6.954;2022-08-21T04:18:08;18.20;70.90
53454;DHT22;49404;50.472;6.954;2022-08-21T04:20:34;18.20;71.10
53454;DHT22;49404;50.472;6.954;2022-08-21T04:23:02;18.10;71.20
53454;DHT22;49404;50.472;6.954;2022-08-21T04:25:30;18.10;71.30
53454;DHT22;49404;50.472;6.954;2022-08-21T04:27:57;18.00;71.40
53454;DHT22;49404;50.472;6.954;2022-08-21T04:30:23;18.00;71.80
53454;DHT22;49404;50.472;6.954;2022-08-21T04:32:56;17.90;71.70
53454;DHT22;49404;50.472;6.954;2022-08-21T04:35:23;17.90;71.90
53454;DHT22;49404;50.472;6.954;2022-08-21T04:37:49;17.90;72.20
53454;DHT22;49404;50.472;6.954;2022-08-21T04:40:19;17.90;72.30
53454;DHT22;49404;50.472;6.954;2022-08-21T04:42:50;17.90;72.40
53454;DHT22;49404;50.472;6.954;2022-08-21T04:45:25;17.80;72.40
53454;DHT22;49404;50.472;6.954;2022-08-21T04:47:59;17.80;72.50
53454;DHT22;49404;50.472;6.954;2022-08-21T04:53:10;17.80;72.40
53454;DHT22;49404;50.472;6.954;2022-08-21T04:55:44;17.70;72.50
53454;DHT22;49404;50.472;6.954;2022-08-21T04:58:13;17.70;72.70
53454;DHT22;49404;50.472;6.954;2022-08-21T05:00:42;17.70;72.60
53454;DHT22;49404;50.472;6.954;2022-08-21T05:03:09;17.70;72.60
53454;DHT22;49404;50.472;6.954;2022-08-21T05:05:36;17.70;72.70
53454;DHT22;49404;50.472;6.954;2022-08-21T05:08:06;17.70;72.50
53454;DHT22;49404;50.472;6.954;2022-08-21T05:10:33;17.80;72.60
53454;DHT22;49404;50.472;6.954;2022-08-21T05:12:59;17.80;72.60
53454;DHT22;49404;50.472;6.954;2022-08-21T05:15:26;17.80;72.60
53454;DHT22;49404;50.472;6.954;2022-08-21T05:17:58;17.80;72.60
53454;DHT22;49404;50.472;6.954;2022-08-21T05:20:23;17.90;72.50
53454;DHT22;49404;50.472;6.954;2022-08-21T05:22:57;18.00;72.20
53454;DHT22;49404;50.472;6.954;2022-08-21T05:25:25;18.20;71.90
53454;DHT22;49404;50.472;6.954;2022-08-21T05:27:57;18.30;71.30
53454;DHT22;49404;50.472;6.954;2022-08-21T05:30:23;18.60;70.70
53454;DHT22;49404;50.472;6.954;2022-08-21T05:32:49;18.80;69.90
53454;DHT22;49404;50.472;6.954;2022-08-21T05:35:22;19.00;69.50
53454;DHT22;49404;50.472;6.954;2022-08-21T05:37:47;19.20;68.80
53454;DHT22;49404;50.472;6.954;2022-08-21T05:40:13;19.50;68.30
53454;DHT22;49404;50.472;6.954;2022-08-21T05:42:42;19.80;67.30
53454;DHT22;49404;50.472;6.954;2022-08-21T05:45:10;20.00;66.30
53454;DHT22;49404;50.472;6.954;2022-08-21T05:47:39;20.20;65.40
53454;DHT22;49404;50.472;6.954;2022-08-21T05:50:05;20.30;64.80
53454;DHT22;49404;50.472;6.954;2022-08-21T05:52:31;20.30;64.30
53454;DHT22;49404;50.472;6.954;2022-08-21T05:54:56;20.30;64.10
53454;DHT22;49404;50.472;6.954;2022-08-21T05:57:22;20.40;64.20
53454;DHT22;49404;50.472;6.954;2022-08-21T05:59:54;20.40;63.90
53454;DHT22;49404;50.472;6.954;2022-08-21T06:02:21;20.60;63.50
53454;DHT22;49404;50.472;6.954;2022-08-21T06:04:47;20.80;63.20
53454;DHT22;49404;50.472;6.954;2022-08-21T06:07:19;21.00;62.60
53454;DHT22;49404;50.472;6.954;2022-08-21T06:09:44;21.20;62.00
53454;DHT22;49404;50.472;6.954;2022-08-21T06:12:11;21.50;61.50
53454;DHT22;49404;50.472;6.954;2022-08-21T06:14:43;21.70;60.60
53454;DHT22;49404;50.472;6.954;2022-08-21T06:17:11;22.00;60.00
53454;DHT22;49404;50.472;6.954;2022-08-21T06:19:39;22.20;59.70
53454;DHT22;49404;50.472;6.954;2022-08-21T06:22:05;22.50;58.80
53454;DHT22;49404;50.472;6.954;2022-08-21T06:24:30;22.70;57.80
53454;DHT22;49404;50.472;6.954;2022-08-21T06:26:56;22.90;56.80
53454;DHT22;49404;50.472;6.954;2022-08-21T06:29:22;23.10;56.30
53454;DHT22;49404;50.472;6.954;2022-08-21T06:31:54;23.30;55.80
53454;DHT22;49404;50.472;6.954;2022-08-21T06:34:19;23.40;55.70
53454;DHT22;49404;50.472;6.954;2022-08-21T06:36:47;23.60;55.10
53454;DHT22;49404;50.472;6.954;2022-08-21T06:39:17;23.80;54.90
53454;DHT22;49404;50.472;6.954;2022-08-21T06:41:44;24.10;53.70
53454;DHT22;49404;50.472;6.954;2022-08-21T06:44:10;24.30;53.30
53454;DHT22;49404;50.472;6.954;2022-08-21T06:46:45;24.40;52.80
53454;DHT22;49404;50.472;6.954;2022-08-21T06:49:10;24.60;52.60
53454;DHT22;49404;50.472;6.954;2022-08-21T06:51:42;24.90;52.10
53454;DHT22;49404;50.472;6.954;2022-08-21T06:54:08;25.10;51.70
53454;DHT22;49404;50.472;6.954;2022-08-21T06:56:34;25.30;51.30
53454;DHT22;49404;50.472;6.954;2022-08-21T06:59:07;25.50;50.60
53454;DHT22;49404;50.472;6.954;2022-08-21T07:01:32;25.80;49.90
53454;DHT22;49404;50.472;6.954;2022-08-21T07:03:58;26.00;49.40
53454;DHT22;49404;50.472;6.954;2022-08-21T07:06:27;26.30;49.00
53454;DHT22;49404;50.472;6.954;2022-08-21T07:08:53;26.40;48.40
53454;DHT22;49404;50.472;6.954;2022-08-21T07:11:21;26.60;47.80
53454;DHT22;49404;50.472;6.954;2022-08-21T07:13:53;26.70;48.30
53454;DHT22;49404;50.472;6.954;2022-08-21T07:16:21;26.80;48.10
53454;DHT22;49404;50.472;6.954;2022-08-21T07:18:52;27.00;48.10
53454;DHT22;49404;50.472;6.954;2022-08-21T07:21:17;27.20;47.00
53454;DHT22;49404;50.472;6.954;2022-08-21T07:23:48;27.40;47.30
53454;DHT22;49404;50.472;6.954;2022-08-21T07:26:20;27.60;46.30
53454;DHT22;49404;50.472;6.954;2022-08-21T07:28:52;27.70;45.80
53454;DHT22;49404;50.472;6.954;2022-08-21T07:31:20;27.80;45.70
53454;DHT22;49404;50.472;6.954;2022-08-21T07:33:46;28.00;45.60
53454;DHT22;49404;50.472;6.954;2022-08-21T07:36:18;28.10;45.10
53454;DHT22;49404;50.472;6.954;2022-08-21T07:38:47;28.20;44.60
53454;DHT22;49404;50.472;6.954;2022-08-21T07:41:18;28.30;44.30
53454;DHT22;49404;50.472;6.954;2022-08-21T07:43:46;28.40;44.40
53454;DHT22;49404;50.472;6.954;2022-08-21T07:46:17;28.50;44.40
53454;DHT22;49404;50.472;6.954;2022-08-21T07:48:42;28.50;43.90
53454;DHT22;49404;50.472;6.954;2022-08-21T07:51:11;28.60;43.90
53454;DHT22;49404;50.472;6.954;2022-08-21T07:53:54;28.70;43.50
53454;DHT22;49404;50.472;6.954;2022-08-21T07:56:20;28.80;44.10
53454;DHT22;49404;50.472;6.954;2022-08-21T07:58:46;28.80;43.70
53454;DHT22;49404;50.472;6.954;2022-08-21T08:01:18;29.00;43.80
53454;DHT22;49404;50.472;6.954;2022-08-21T08:03:44;29.00;43.40
53454;DHT22;49404;50.472;6.954;2022-08-21T08:06:10;29.20;43.00
53454;DHT22;49404;50.472;6.954;2022-08-21T08:08:41;29.30;43.40
53454;DHT22;49404;50.472;6.954;2022-08-21T08:11:07;29.30;42.80
53454;DHT22;49404;50.472;6.954;2022-08-21T08:13:41;29.50;42.50
53454;DHT22;49404;50.472;6.954;2022-08-21T08:16:09;29.60;42.60
53454;DHT22;49404;50.472;6.954;2022-08-21T08:18:35;29.70;42.40
53454;DHT22;49404;50.472;6.954;2022-08-21T08:21:09;29.80;41.90
53454;DHT22;49404;50.472;6.954;2022-08-21T08:23:35;29.90;42.40
53454;DHT22;49404;50.472;6.954;2022-08-21T08:26:06;29.90;41.80
53454;DHT22;49404;50.472;6.954;2022-08-21T08:28:33;30.00;42.10
53454;DHT22;49404;50.472;6.954;2022-08-21T08:31:03;30.00;41.30
53454;DHT22;49404;50.472;6.954;2022-08-21T08:33:29;30.10;41.00
53454;DHT22;49404;50.472;6.954;2022-08-21T08:35:55;30.10;41.20
53454;DHT22;49404;50.472;6.954;2022-08-21T08:38:22;30.10;41.10
53454;DHT22;49404;50.472;6.954;2022-08-21T08:43:30;30.40;40.90
53454;DHT22;49404;50.472;6.954;2022-08-21T08:45:58;30.50;39.70
53454;DHT22;49404;50.472;6.954;2022-08-21T08:51:55;30.70;40.40
53454;DHT22;49404;50.472;6.954;2022-08-21T08:54:41;30.80;38.40
53454;DHT22;49404;50.472;6.954;2022-08-21T08:57:10;30.80;38.80
53454;DHT22;49404;50.472;6.954;2022-08-21T08:59:55;30.90;39.00
53454;DHT22;49404;50.472;6.954;2022-08-21T09:02:21;30.90;38.80
53454;DHT22;49404;50.472;6.954;2022-08-21T09:04:52;31.00;39.50
53454;DHT22;49404;50.472;6.954;2022-08-21T09:15:25;31.40;38.70
53454;DHT22;49404;50.472;6.954;2022-08-21T09:18:10;31.50;37.50
53454;DHT22;49404;50.472;6.954;2022-08-21T09:24:13;31.40;37.30
53454;DHT22;49404;50.472;6.954;2022-08-21T09:26:59;31.40;38.50
53454;DHT22;49404;50.472;6.954;2022-08-21T09:29:29;31.40;38.10
53454;DHT22;49404;50.472;6.954;2022-08-21T09:31:58;31.40;38.30
53454;DHT22;49404;50.472;6.954;2022-08-21T09:34:30;31.50;38.10
53454;DHT22;49404;50.472;6.954;2022-08-21T09:36:58;31.50;38.20
53454;DHT22;49404;50.472;6.954;2022-08-21T09:39:31;31.70;37.70
53454;DHT22;49404;50.472;6.954;2022-08-21T09:42:00;31.80;37.60
53454;DHT22;49404;50.472;6.954;2022-08-21T09:44:31;31.80;36.80
53454;DHT22;49404;50.472;6.954;2022-08-21T09:46:58;31.90;36.30
53454;DHT22;49404;50.472;6.954;2022-08-21T09:49:34;31.80;37.40
53454;DHT22;49404;50.472;6.954;2022-08-21T09:52:20;31.90;37.00
53454;DHT22;49404;50.472;6.954;2022-08-21T09:54:54;32.00;37.10
53454;DHT22;49404;50.472;6.954;2022-08-21T09:57:25;32.10;36.40
53454;DHT22;49404;50.472;6.954;2022-08-21T10:00:32;32.10;37.10
53454;DHT22;49404;50.472;6.954;2022-08-21T10:03:12;32.30;36.90
53454;DHT22;49404;50.472;6.954;2022-08-21T10:06:00;32.40;36.80
53454;DHT22;49404;50.472;6.954;2022-08-21T10:08:29;32.50;36.90
53454;DHT22;49404;50.472;6.954;2022-08-21T10:11:06;32.60;36.40
53454;DHT22;49404;50.472;6.954;2022-08-21T10:13:51;32.60;36.10
53454;DHT22;49404;50.472;6.954;2022-08-21T10:19:43;32.70;36.40
53454;DHT22;49404;50.472;6.954;2022-08-21T10:22:38;32.80;35.80
53454;DHT22;49404;50.472;6.954;2022-08-21T10:25:22;32.80;35.40
53454;DHT22;49404;50.472;6.954;2022-08-21T10:30:56;32.70;35.70
53454;DHT22;49404;50.472;6.954;2022-08-21T10:39:01;32.80;35.30
53454;DHT22;49404;50.472;6.954;2022-08-21T10:41:41;32.90;35.50
53454;DHT22;49404;50.472;6.954;2022-08-21T10:46:56;33.10;34.40
53454;DHT22;49404;50.472;6.954;2022-08-21T10:55:12;33.20;34.40
53454;DHT22;49404;50.472;6.954;2022-08-21T10:57:58;33.20;33.10
53454;DHT22;49404;50.472;6.954;2022-08-21T11:00:45;33.00;34.00
53454;DHT22;49404;50.472;6.954;2022-08-21T11:05:55;32.60;34.00
53454;DHT22;49404;50.472;6.954;2022-08-21T11:08:28;32.50;34.70
53454;DHT22;49404;50.472;6.954;2022-08-21T11:11:21;32.40;34.60
53454;DHT22;49404;50.472;6.954;2022-08-21T11:17:02;32.50;35.00
53454;DHT22;49404;50.472;6.954;2022-08-21T11:20:05;32.60;34.30
53454;DHT22;49404;50.472;6.954;2022-08-21T11:22:56;32.70;34.20
53454;DHT22;49404;50.472;6.954;2022-08-21T11:25:36;32.70;33.30
53454;DHT22;49404;50.472;6.954;2022-08-21T11:28:33;32.80;33.70
53454;DHT22;49404;50.472;6.954;2022-08-21T11:39:16;32.90;33.60
53454;DHT22;49404;50.472;6.954;2022-08-21T11:50:22;32.80;33.00
53454;DHT22;49404;50.472;6.954;2022-08-21T11:53:00;32.50;33.20
53454;DHT22;49404;50.472;6.954;2022-08-21T11:58:15;32.30;34.50
53454;DHT22;49404;50.472;6.954;2022-08-21T12:03:52;32.30;34.50
53454;DHT22;49404;50.472;6.954;2022-08-21T12:06:30;32.40;33.10
53454;DHT22;49404;50.472;6.954;2022-08-21T12:09:40;32.50;33.70
53454;DHT22;49404;50.472;6.954;2022-08-21T12:12:34;32.50;34.30
53454;DHT22;49404;50.472;6.954;2022-08-21T12:15:13;32.60;33.90
53454;DHT22;49404;50.472;6.954;2022-08-21T12:23:17;32.60;34.00
53454;DHT22;49404;50.472;6.954;2022-08-21T12:25:47;32.60;33.70
53454;DHT22;49404;50.472;6.954;2022-08-21T12:28:22;32.60;33.20
53454;DHT22;49404;50.472;6.954;2022-08-21T12:30:53;32.60;33.90
53454;DHT22;49404;50.472;6.954;2022-08-21T12:33:38;32.60;33.30
53454;DHT22;49404;50.472;6.954;2022-08-21T12:36:12;32.40;33.40
53454;DHT22;49404;50.472;6.954;2022-08-21T12:38:51;32.30;33.30
53454;DHT22;49404;50.472;6.954;2022-08-21T12:41:33;32.10;33.50
53454;DHT22;49404;50.472;6.954;2022-08-21T12:44:14;31.90;34.00
53454;DHT22;49404;50.472;6.954;2022-08-21T12:47:04;31.80;34.20
53454;DHT22;49404;50.472;6.954;2022-08-21T12:50:08;31.60;34.10
53454;DHT22;49404;50.472;6.954;2022-08-21T12:52:45;31.60;34.30
53454;DHT22;49404;50.472;6.954;2022-08-21T12:55:15;31.50;34.00
53454;DHT22;49404;50.472;6.954;2022-08-21T12:57:51;31.50;34.30
53454;DHT22;49404;50.472;6.954;2022-08-21T13:00:23;31.60;34.00
53454;DHT22;49404;50.472;6.954;2022-08-21T13:02:55;31.60;34.00
53454;DHT22;49404;50.472;6.954;2022-08-21T13:05:34;31.60;34.00
53454;DHT22;49404;50.472;6.954;2022-08-21T13:08:08;31.60;33.70
53454;DHT22;49404;50.472;6.954;2022-08-21T13:10:41;31.60;33.60
53454;DHT22;49404;50.472;6.954;2022-08-21T13:13:11;31.60;33.50
53454;DHT22;49404;50.472;6.954;2022-08-21T13:15:43;31.60;33.70
53454;DHT22;49404;50.472;6.954;2022-08-21T13:18:26;31.60;33.80
53454;DHT22;49404;50.472;6.954;2022-08-21T13:21:14;31.50;34.00
53454;DHT22;49404;50.472;6.954;2022-08-21T13:23:40;31.50;34.40
53454;DHT22;49404;50.472;6.954;2022-08-21T13:26:15;31.50;34.30
53454;DHT22;49404;50.472;6.954;2022-08-21T13:28:40;31.40;33.70
53454;DHT22;49404;50.472;6.954;2022-08-21T13:31:09;31.40;33.80
53454;DHT22;49404;50.472;6.954;2022-08-21T13:33:40;31.40;34.10
53454;DHT22;49404;50.472;6.954;2022-08-21T13:36:16;31.30;34.20
53454;DHT22;49404;50.472;6.954;2022-08-21T13:38:44;31.20;33.70
53454;DHT22;49404;50.472;6.954;2022-08-21T13:41:19;31.10;34.40
53454;DHT22;49404;50.472;6.954;2022-08-21T13:43:55;31.00;34.80
53454;DHT22;49404;50.472;6.954;2022-08-21T13:46:27;31.00;35.30
53454;DHT22;49404;50.472;6.954;2022-08-21T13:48:54;30.90;34.90
53454;DHT22;49404;50.472;6.954;2022-08-21T13:51:20;30.80;35.20
53454;DHT22;49404;50.472;6.954;2022-08-21T13:53:52;30.70;35.50
53454;DHT22;49404;50.472;6.954;2022-08-21T13:56:41;30.60;35.90
53454;DHT22;49404;50.472;6.954;2022-08-21T13:59:07;30.60;36.20
53454;DHT22;49404;50.472;6.954;2022-08-21T14:04:39;30.50;35.70
53454;DHT22;49404;50.472;6.954;2022-08-21T14:07:20;30.50;35.70
53454;DHT22;49404;50.472;6.954;2022-08-21T14:09:55;30.50;35.80
53454;DHT22;49404;50.472;6.954;2022-08-21T14:12:41;30.40;35.70
53454;DHT22;49404;50.472;6.954;2022-08-21T14:15:09;30.40;36.30
53454;DHT22;49404;50.472;6.954;2022-08-21T14:17:41;30.40;36.10
53454;DHT22;49404;50.472;6.954;2022-08-21T14:20:11;30.40;36.30
53454;DHT22;49404;50.472;6.954;2022-08-21T14:30:56;30.30;36.70
53454;DHT22;49404;50.472;6.954;2022-08-21T14:33:29;30.30;36.90
53454;DHT22;49404;50.472;6.954;2022-08-21T14:35:56;30.20;36.70
53454;DHT22;49404;50.472;6.954;2022-08-21T14:38:27;30.30;36.80
53454;DHT22;49404;50.472;6.954;2022-08-21T14:41:07;30.20;36.50
53454;DHT22;49404;50.472;6.954;2022-08-21T14:43:33;30.20;36.70
53454;DHT22;49404;50.472;6.954;2022-08-21T14:46:00;30.20;36.90
53454;DHT22;49404;50.472;6.954;2022-08-21T14:48:35;30.10;37.20
53454;DHT22;49404;50.472;6.954;2022-08-21T14:51:01;30.10;37.40
53454;DHT22;49404;50.472;6.954;2022-08-21T14:53:30;30.00;37.50
53454;DHT22;49404;50.472;6.954;2022-08-21T14:55:55;29.90;37.60
53454;DHT22;49404;50.472;6.954;2022-08-21T14:58:37;29.90;37.70
53454;DHT22;49404;50.472;6.954;2022-08-21T15:01:11;29.80;37.80
53454;DHT22;49404;50.472;6.954;2022-08-21T15:03:37;29.70;37.90
53454;DHT22;49404;50.472;6.954;2022-08-21T15:06:10;29.70;37.80
53454;DHT22;49404;50.472;6.954;2022-08-21T15:08:36;29.60;37.90
53454;DHT22;49404;50.472;6.954;2022-08-21T15:11:10;29.60;37.90
53454;DHT22;49404;50.472;6.954;2022-08-21T15:13:36;29.50;38.10
53454;DHT22;49404;50.472;6.954;2022-08-21T15:16:09;29.50;38.00
53454;DHT22;49404;50.472;6.954;2022-08-21T15:18:36;29.50;38.50
53454;DHT22;49404;50.472;6.954;2022-08-21T15:21:02;29.40;38.70
53454;DHT22;49404;50.472;6.954;2022-08-21T15:23:33;29.40;38.80
53454;DHT22;49404;50.472;6.954;2022-08-21T15:26:00;29.40;38.70
53454;DHT22;49404;50.472;6.954;2022-08-21T15:28:30;29.40;39.10
53454;DHT22;49404;50.472;6.954;2022-08-21T15:30:55;29.40;39.50
53454;DHT22;49404;50.472;6.954;2022-08-21T15:33:21;29.40;39.80
53454;DHT22;49404;50.472;6.954;2022-08-21T15:35:47;29.30;39.80
53454;DHT22;49404;50.472;6.954;2022-08-21T15:38:14;29.40;39.90
53454;DHT22;49404;50.472;6.954;2022-08-21T15:40:46;29.40;39.80
53454;DHT22;49404;50.472;6.954;2022-08-21T15:43:25;29.30;39.80
53454;DHT22;49404;50.472;6.954;2022-08-21T15:46:00;29.30;39.90
53454;DHT22;49404;50.472;6.954;2022-08-21T15:48:30;29.30;39.90
53454;DHT22;49404;50.472;6.954;2022-08-21T15:50:58;29.20;39.80
53454;DHT22;49404;50.472;6.954;2022-08-21T15:53:26;29.20;39.80
53454;DHT22;49404;50.472;6.954;2022-08-21T15:56:00;29.10;39.90
53454;DHT22;49404;50.472;6.954;2022-08-21T15:58:25;29.10;40.00
53454;DHT22;49404;50.472;6.954;2022-08-21T16:00:54;29.10;40.20
53454;DHT22;49404;50.472;6.954;2022-08-21T16:03:20;29.10;40.30
53454;DHT22;49404;50.472;6.954;2022-08-21T16:05:48;29.00;40.20
53454;DHT22;49404;50.472;6.954;2022-08-21T16:08:23;28.90;40.00
53454;DHT22;49404;50.472;6.954;2022-08-21T16:11:00;28.90;39.80
53454;DHT22;49404;50.472;6.954;2022-08-21T16:13:33;28.90;39.80
53454;DHT22;49404;50.472;6.954;2022-08-21T16:16:00;28.80;39.70
53454;DHT22;49404;50.472;6.954;2022-08-21T16:18:26;28.80;39.80
53454;DHT22;49404;50.472;6.954;2022-08-21T16:20:54;28.70;39.80
53454;DHT22;49404;50.472;6.954;2022-08-21T16:23:20;28.80;39.70
53454;DHT22;49404;50.472;6.954;2022-08-21T16:25:48;28.70;39.80
53454;DHT22;49404;50.472;6.954;2022-08-21T16:28:18;28.70;40.00
53454;DHT22;49404;50.472;6.954;2022-08-21T16:30:49;28.70;39.80
53454;DHT22;49404;50.472;6.954;2022-08-21T16:33:48;28.70;40.10
53454;DHT22;49404;50.472;6.954;2022-08-21T16:36:14;28.70;40.20
53454;DHT22;49404;50.472;6.954;2022-08-21T16:38:47;28.60;40.10
53454;DHT22;49404;50.472;6.954;2022-08-21T16:41:21;28.60;40.10
53454;DHT22;49404;50.472;6.954;2022-08-21T16:43:56;28.50;40.10
53454;DHT22;49404;50.472;6.954;2022-08-21T16:46:22;28.50;40.00
53454;DHT22;49404;50.472;6.954;2022-08-21T16:48:49;28.50;40.40
53454;DHT22;49404;50.472;6.954;2022-08-21T16:51:18;28.40;40.50
53454;DHT22;49404;50.472;6.954;2022-08-21T16:53:44;28.40;40.30
53454;DHT22;49404;50.472;6.954;2022-08-21T16:56:13;28.30;40.30
53454;DHT22;49404;50.472;6.954;2022-08-21T16:58:41;28.30;40.80
53454;DHT22;49404;50.472;6.954;2022-08-21T17:01:18;28.20;41.10
53454;DHT22;49404;50.472;6.954;2022-08-21T17:03:51;28.20;40.70
53454;DHT22;49404;50.472;6.954;2022-08-21T17:06:19;28.20;40.50
53454;DHT22;49404;50.472;6.954;2022-08-21T17:08:51;28.10;41.20
53454;DHT22;49404;50.472;6.954;2022-08-21T17:11:30;28.10;40.70
53454;DHT22;49404;50.472;6.954;2022-08-21T17:14:03;28.00;40.70
53454;DHT22;49404;50.472;6.954;2022-08-21T17:16:29;28.00;40.90
53454;DHT22;49404;50.472;6.954;2022-08-21T17:18:55;27.90;40.90
53454;DHT22;49404;50.472;6.954;2022-08-21T17:21:21;27.90;41.00